sensor_id;sensor_type;location;lat;lon;timestamp;pressure;altitude;pressure_sealevel;temperature;humidity
43745;BME280;29359;53.048;8.732;2023-02-19T00:00:17;101559.91;;;6.74;100.00
43745;BME280;29359;53.048;8.732;2023-02-19T00:02:18;101559.03;;;6.72;100.00
43745;BME280;29359;53.048;8.732;2023-02-19T00:04:20;101559.03;;;6.69;100.00
43745;BME280;29359;53.048;8.732;2023-02-19T00:06:24;101552.94;;;6.64;100.00
43745;BME280;29359;53.048;8.732;2023-02-19T00:08:26;101554.66;;;6.61;100.00
43745;BME280;29359;53.048;8.732;2023-02-19T00:10:27;101552.06;;;6.58;100.00
43745;BME280;29359;53.048;8.732;2023-02-19T00:12:28;101540.69;;;6.55;100.00
43745;BME280;29359;53.048;8.732;2023-02-19T00:14:30;101546.81;;;6.51;100.00
43745;BME280;29359;53.048;8.732;2023-02-19T00:16:37;101545.03;;;6.47;100.00
43745;BME280;29359;53.048;8.732;2023-02-19T00:18:39;101538.91;;;6.46;100.00
43745;BME280;29359;53.048;8.732;2023-02-19T00:20:41;101548.53;;;6.46;100.00
43745;BME280;29359;53.048;8.732;2023-02-19T00:22:43;101549.41;;;6.45;100.00
43745;BME280;29359;53.048;8.732;2023-02-19T00:24:44;101554.66;;;6.40;100.00
43745;BME280;29359;53.048;8.732;2023-02-19T00:26:48;101556.41;;;6.40;100.00
43745;BME280;29359;53.048;8.732;2023-02-19T00:28:51;101556.41;;;6.35;100.00
43745;BME280;29359;53.048;8.732;2023-02-19T00:30:52;101553.78;;;6.30;100.00
43745;BME280;29359;53.048;8.732;2023-02-19T00:32:54;101552.03;;;6.28;100.00
43745;BME280;29359;53.048;8.732;2023-02-19T00:34:55;101555.53;;;6.27;100.00
43745;BME280;29359;53.048;8.732;2023-02-19T00:36:57;101554.66;;;6.26;100.00
43745;BME280;29359;53.048;8.732;2023-02-19T00:38:58;101557.28;;;6.23;100.00
43745;BME280;29359;53.048;8.732;2023-02-19T00:41:00;101548.53;;;6.21;100.00
43745;BME280;29359;53.048;8.732;2023-02-19T00:43:19;101556.38;;;6.17;100.00
43745;BME280;29359;53.048;8.732;2023-02-19T00:45:20;101560.75;;;6.13;100.00
43745;BME280;29359;53.048;8.732;2023-02-19T00:47:22;101555.50;;;6.12;100.00
43745;BME280;29359;53.048;8.732;2023-02-19T00:49:23;101566.00;;;6.12;100.00
43745;BME280;29359;53.048;8.732;2023-02-19T00:51:28;101561.63;;;6.11;100.00
43745;BME280;29359;53.048;8.732;2023-02-19T00:53:30;101558.13;;;6.10;100.00
43745;BME280;29359;53.048;8.732;2023-02-19T00:55:32;101554.59;;;6.05;100.00
43745;BME280;29359;53.048;8.732;2023-02-19T00:57:33;101558.97;;;6.02;100.00
43745;BME280;29359;53.048;8.732;2023-02-19T00:59:34;101564.19;;;6.00;100.00
43745;BME280;29359;53.048;8.732;2023-02-19T01:01:37;101544.97;;;5.96;100.00
43745;BME280;29359;53.048;8.732;2023-02-19T01:03:39;101558.06;;;5.95;100.00
43745;BME280;29359;53.048;8.732;2023-02-19T01:05:40;101542.34;;;5.95;100.00
43745;BME280;29359;53.048;8.732;2023-02-19T01:07:42;101573.78;;;5.93;100.00
43745;BME280;29359;53.048;8.732;2023-02-19T01:09:43;101547.59;;;5.92;100.00
43745;BME280;29359;53.048;8.732;2023-02-19T01:11:45;101542.34;;;5.92;100.00
43745;BME280;29359;53.048;8.732;2023-02-19T01:13:46;101550.19;;;5.90;100.00
43745;BME280;29359;53.048;8.732;2023-02-19T01:15:48;101552.81;;;5.90;100.00
43745;BME280;29359;53.048;8.732;2023-02-19T01:17:50;101558.06;;;5.90;100.00
43745;BME280;29359;53.048;8.732;2023-02-19T01:19:51;101556.28;;;5.86;100.00
43745;BME280;29359;53.048;8.732;2023-02-19T01:21:53;101566.75;;;5.85;100.00
43745;BME280;29359;53.048;8.732;2023-02-19T01:23:55;101558.00;;;5.80;100.00
43745;BME280;29359;53.048;8.732;2023-02-19T01:25:56;101558.00;;;5.78;100.00
43745;BME280;29359;53.048;8.732;2023-02-19T01:27:58;101571.09;;;5.75;100.00
43745;BME280;29359;53.048;8.732;2023-02-19T01:29:59;101557.13;;;5.72;100.00
43745;BME280;29359;53.048;8.732;2023-02-19T01:32:01;101567.59;;;5.70;100.00
43745;BME280;29359;53.048;8.732;2023-02-19T01:34:03;101566.72;;;5.68;100.00
43745;BME280;29359;53.048;8.732;2023-02-19T01:36:06;101568.44;;;5.66;100.00
43745;BME280;29359;53.048;8.732;2023-02-19T01:38:07;101569.28;;;5.63;100.00
43745;BME280;29359;53.048;8.732;2023-02-19T01:40:09;101566.66;;;5.62;100.00
43745;BME280;29359;53.048;8.732;2023-02-19T01:42:15;101568.38;;;5.58;100.00
43745;BME280;29359;53.048;8.732;2023-02-19T01:46:18;101565.75;;;5.55;100.00
43745;BME280;29359;53.048;8.732;2023-02-19T01:48:25;101573.63;;;5.54;100.00
43745;BME280;29359;53.048;8.732;2023-02-19T01:50:30;101578.84;;;5.54;100.00
43745;BME280;29359;53.048;8.732;2023-02-19T01:52:35;101577.97;;;5.52;100.00
43745;BME280;29359;53.048;8.732;2023-02-19T01:54:39;101582.34;;;5.51;100.00
43745;BME280;29359;53.048;8.732;2023-02-19T01:56:43;101575.34;;;5.49;100.00
43745;BME280;29359;53.048;8.732;2023-02-19T01:58:46;101580.56;;;5.49;100.00
43745;BME280;29359;53.048;8.732;2023-02-19T02:00:48;101576.22;;;5.49;100.00
43745;BME280;29359;53.048;8.732;2023-02-19T02:02:51;101577.97;;;5.50;100.00
43745;BME280;29359;53.048;8.732;2023-02-19T02:04:57;101577.09;;;5.50;100.00
43745;BME280;29359;53.048;8.732;2023-02-19T02:07:02;101578.81;;;5.48;100.00
43745;BME280;29359;53.048;8.732;2023-02-19T02:09:26;101580.56;;;5.46;100.00
43745;BME280;29359;53.048;8.732;2023-02-19T02:11:49;101581.44;;;5.45;100.00
43745;BME280;29359;53.048;8.732;2023-02-19T02:13:52;101584.06;;;5.45;100.00
43745;BME280;29359;53.048;8.732;2023-02-19T02:16:22;101589.28;;;5.43;100.00
43745;BME280;29359;53.048;8.732;2023-02-19T02:18:30;101591.91;;;5.43;100.00
43745;BME280;29359;53.048;8.732;2023-02-19T02:21:02;101588.41;;;5.44;100.00
43745;BME280;29359;53.048;8.732;2023-02-19T02:28:00;101586.66;;;5.43;100.00
43745;BME280;29359;53.048;8.732;2023-02-19T02:30:19;101586.66;;;5.42;100.00
43745;BME280;29359;53.048;8.732;2023-02-19T02:32:26;101587.53;;;5.42;100.00
43745;BME280;29359;53.048;8.732;2023-02-19T02:34:38;101583.16;;;5.40;100.00
43745;BME280;29359;53.048;8.732;2023-02-19T02:36:44;101579.66;;;5.39;100.00
43745;BME280;29359;53.048;8.732;2023-02-19T02:38:48;101576.16;;;5.35;100.00
43745;BME280;29359;53.048;8.732;2023-02-19T02:40:50;101579.63;;;5.33;100.00
43745;BME280;29359;53.048;8.732;2023-02-19T02:42:56;101579.63;;;5.33;100.00
43745;BME280;29359;53.048;8.732;2023-02-19T02:47:45;101579.63;;;5.28;100.00
43745;BME280;29359;53.048;8.732;2023-02-19T02:49:48;101577.00;;;5.28;100.00
43745;BME280;29359;53.048;8.732;2023-02-19T02:52:05;101571.75;;;5.27;100.00
43745;BME280;29359;53.048;8.732;2023-02-19T02:54:30;101568.25;;;5.25;100.00
43745;BME280;29359;53.048;8.732;2023-02-19T02:56:53;101576.97;;;5.22;100.00
43745;BME280;29359;53.048;8.732;2023-02-19T02:58:57;101577.78;;;5.20;100.00
43745;BME280;29359;53.048;8.732;2023-02-19T03:01:28;101580.41;;;5.18;100.00
43745;BME280;29359;53.048;8.732;2023-02-19T03:03:53;101581.28;;;5.17;100.00
43745;BME280;29359;53.048;8.732;2023-02-19T03:05:59;101585.63;;;5.14;100.00
43745;BME280;29359;53.048;8.732;2023-02-19T03:10:27;101608.25;;;5.07;100.00
43745;BME280;29359;53.048;8.732;2023-02-19T03:12:31;101613.47;;;5.05;100.00
43745;BME280;29359;53.048;8.732;2023-02-19T03:14:54;101621.31;;;5.02;100.00
43745;BME280;29359;53.048;8.732;2023-02-19T03:17:38;101616.03;;;4.98;100.00
43745;BME280;29359;53.048;8.732;2023-02-19T03:20:03;101632.59;;;4.97;100.00
43745;BME280;29359;53.048;8.732;2023-02-19T03:22:36;101625.63;;;4.96;100.00
43745;BME280;29359;53.048;8.732;2023-02-19T03:24:58;101630.84;;;4.93;100.00
43745;BME280;29359;53.048;8.732;2023-02-19T03:27:20;101634.31;;;4.89;100.00
43745;BME280;29359;53.048;8.732;2023-02-19T03:29:23;101636.91;;;4.89;100.00
43745;BME280;29359;53.048;8.732;2023-02-19T03:31:28;101639.53;;;4.89;100.00
43745;BME280;29359;53.048;8.732;2023-02-19T03:33:32;101633.41;;;4.88;100.00
43745;BME280;29359;53.048;8.732;2023-02-19T03:35:39;101646.50;;;4.87;100.00
43745;BME280;29359;53.048;8.732;2023-02-19T03:37:50;101650.84;;;4.86;100.00
43745;BME280;29359;53.048;8.732;2023-02-19T03:39:53;101658.69;;;4.85;100.00
43745;BME280;29359;53.048;8.732;2023-02-19T03:42:14;101660.44;;;4.84;100.00
43745;BME280;29359;53.048;8.732;2023-02-19T03:44:41;101666.50;;;4.82;100.00
43745;BME280;29359;53.048;8.732;2023-02-19T03:47:09;101675.22;;;4.79;100.00
43745;BME280;29359;53.048;8.732;2023-02-19T03:51:59;101678.63;;;4.77;100.00
43745;BME280;29359;53.048;8.732;2023-02-19T03:56:44;101689.09;;;4.75;100.00
43745;BME280;29359;53.048;8.732;2023-02-19T03:59:01;101694.31;;;4.75;100.00
43745;BME280;29359;53.048;8.732;2023-02-19T04:01:20;101692.56;;;4.74;100.00
43745;BME280;29359;53.048;8.732;2023-02-19T04:03:45;101698.63;;;4.68;100.00
43745;BME280;29359;53.048;8.732;2023-02-19T04:05:54;101709.06;;;4.65;100.00
43745;BME280;29359;53.048;8.732;2023-02-19T04:08:04;101709.88;;;4.61;100.00
43745;BME280;29359;53.048;8.732;2023-02-19T04:10:09;101721.19;;;4.57;100.00
43745;BME280;29359;53.048;8.732;2023-02-19T04:12:13;101724.63;;;4.55;100.00
43745;BME280;29359;53.048;8.732;2023-02-19T04:14:19;101732.50;;;4.56;100.00
43745;BME280;29359;53.048;8.732;2023-02-19T04:16:26;101731.63;;;4.56;100.00
43745;BME280;29359;53.048;8.732;2023-02-19T04:18:32;101739.47;;;4.54;100.00
43745;BME280;29359;53.048;8.732;2023-02-19T04:20:40;101745.53;;;4.53;100.00
43745;BME280;29359;53.048;8.732;2023-02-19T04:22:43;101741.16;;;4.51;100.00
43745;BME280;29359;53.048;8.732;2023-02-19T04:24:50;101750.75;;;4.52;100.00
43745;BME280;29359;53.048;8.732;2023-02-19T04:26:53;101754.25;;;4.52;100.00
43745;BME280;29359;53.048;8.732;2023-02-19T04:28:55;101758.59;;;4.50;100.00
43745;BME280;29359;53.048;8.732;2023-02-19T04:30:57;101766.44;;;4.52;100.00
43745;BME280;29359;53.048;8.732;2023-02-19T04:32:58;101762.09;;;4.52;100.00
43745;BME280;29359;53.048;8.732;2023-02-19T04:35:00;101767.31;;;4.52;100.00
43745;BME280;29359;53.048;8.732;2023-02-19T04:37:02;101772.56;;;4.52;100.00
43745;BME280;29359;53.048;8.732;2023-02-19T04:39:03;101771.66;;;4.50;100.00
43745;BME280;29359;53.048;8.732;2023-02-19T04:41:04;101776.00;;;4.50;100.00
43745;BME280;29359;53.048;8.732;2023-02-19T04:43:06;101782.97;;;4.49;100.00
43745;BME280;29359;53.048;8.732;2023-02-19T04:45:08;101782.97;;;4.49;100.00
43745;BME280;29359;53.048;8.732;2023-02-19T04:47:09;101789.94;;;4.49;100.00
43745;BME280;29359;53.048;8.732;2023-02-19T04:49:10;101796.06;;;4.49;100.00
43745;BME280;29359;53.048;8.732;2023-02-19T04:51:12;101793.44;;;4.49;100.00
43745;BME280;29359;53.048;8.732;2023-02-19T04:53:14;101799.53;;;4.48;100.00
43745;BME280;29359;53.048;8.732;2023-02-19T04:55:16;101805.63;;;4.47;100.00
43745;BME280;29359;53.048;8.732;2023-02-19T04:57:17;101796.91;;;4.47;100.00
43745;BME280;29359;53.048;8.732;2023-02-19T04:59:19;101805.63;;;4.47;100.00
43745;BME280;29359;53.048;8.732;2023-02-19T05:01:20;101810.00;;;4.48;100.00
43745;BME280;29359;53.048;8.732;2023-02-19T05:03:22;101814.34;;;4.49;100.00
43745;BME280;29359;53.048;8.732;2023-02-19T05:05:23;101809.13;;;4.49;100.00
43745;BME280;29359;53.048;8.732;2023-02-19T05:07:25;101811.75;;;4.49;100.00
43745;BME280;29359;53.048;8.732;2023-02-19T05:09:26;101813.50;;;4.50;100.00
43745;BME280;29359;53.048;8.732;2023-02-19T05:11:28;101819.63;;;4.52;100.00
43745;BME280;29359;53.048;8.732;2023-02-19T05:13:29;101810.03;;;4.51;100.00
43745;BME280;29359;53.048;8.732;2023-02-19T05:15:31;101830.09;;;4.54;100.00
43745;BME280;29359;53.048;8.732;2023-02-19T05:17:33;101822.25;;;4.52;100.00
43745;BME280;29359;53.048;8.732;2023-02-19T05:19:35;101830.09;;;4.52;100.00
43745;BME280;29359;53.048;8.732;2023-02-19T05:21:36;101831.81;;;4.52;100.00
43745;BME280;29359;53.048;8.732;2023-02-19T05:23:40;101829.19;;;4.50;100.00
43745;BME280;29359;53.048;8.732;2023-02-19T05:25:41;101842.25;;;4.50;100.00
43745;BME280;29359;53.048;8.732;2023-02-19T05:27:43;101851.81;;;4.48;100.00
43745;BME280;29359;53.048;8.732;2023-02-19T05:29:44;101860.50;;;4.46;100.00
43745;BME280;29359;53.048;8.732;2023-02-19T05:31:46;101869.19;;;4.43;99.71
43745;BME280;29359;53.048;8.732;2023-02-19T05:33:49;101873.53;;;4.43;100.00
43745;BME280;29359;53.048;8.732;2023-02-19T05:35:54;101872.66;;;4.42;99.99
43745;BME280;29359;53.048;8.732;2023-02-19T05:37:56;101867.41;;;4.39;100.00
43745;BME280;29359;53.048;8.732;2023-02-19T05:39:57;101879.56;;;4.37;100.00
43745;BME280;29359;53.048;8.732;2023-02-19T05:41:59;101883.91;;;4.35;100.00
43745;BME280;29359;53.048;8.732;2023-02-19T05:44:00;101890.88;;;4.36;100.00
43745;BME280;29359;53.048;8.732;2023-02-19T05:46:02;101895.22;;;4.34;100.00
43745;BME280;29359;53.048;8.732;2023-02-19T05:48:04;101900.44;;;4.34;100.00
43745;BME280;29359;53.048;8.732;2023-02-19T05:50:06;101909.09;;;4.33;100.00
43745;BME280;29359;53.048;8.732;2023-02-19T05:52:08;101907.31;;;4.30;100.00
43745;BME280;29359;53.048;8.732;2023-02-19T05:54:09;101907.31;;;4.30;100.00
43745;BME280;29359;53.048;8.732;2023-02-19T05:58:25;101920.41;;;4.32;100.00
43745;BME280;29359;53.048;8.732;2023-02-19T06:00:27;101918.66;;;4.31;100.00
43745;BME280;29359;53.048;8.732;2023-02-19T06:02:29;101918.69;;;4.32;100.00
43745;BME280;29359;53.048;8.732;2023-02-19T06:04:30;101918.75;;;4.34;100.00
43745;BME280;29359;53.048;8.732;2023-02-19T06:06:32;101927.50;;;4.36;100.00
43745;BME280;29359;53.048;8.732;2023-02-19T06:08:33;101923.13;;;4.35;100.00
43745;BME280;29359;53.048;8.732;2023-02-19T06:10:34;101928.34;;;4.35;100.00
43745;BME280;29359;53.048;8.732;2023-02-19T06:12:38;101930.09;;;4.36;100.00
43745;BME280;29359;53.048;8.732;2023-02-19T06:14:39;101939.69;;;4.37;100.00
43745;BME280;29359;53.048;8.732;2023-02-19T06:16:41;101933.59;;;4.36;100.00
43745;BME280;29359;53.048;8.732;2023-02-19T06:18:43;101938.84;;;4.38;99.90
43745;BME280;29359;53.048;8.732;2023-02-19T06:20:45;101944.94;;;4.37;100.00
43745;BME280;29359;53.048;8.732;2023-02-19T06:22:49;101963.22;;;4.37;100.00
43745;BME280;29359;53.048;8.732;2023-02-19T06:24:50;101962.31;;;4.35;99.91
43745;BME280;29359;53.048;8.732;2023-02-19T06:26:52;101966.59;;;4.31;100.00
43745;BME280;29359;53.048;8.732;2023-02-19T06:28:53;101976.13;;;4.28;99.75
43745;BME280;29359;53.048;8.732;2023-02-19T06:30:57;101987.44;;;4.27;100.00
43745;BME280;29359;53.048;8.732;2023-02-19T06:32:58;101977.81;;;4.24;99.61
43745;BME280;29359;53.048;8.732;2023-02-19T06:35:00;101984.75;;;4.22;100.00
43745;BME280;29359;53.048;8.732;2023-02-19T06:37:01;101984.72;;;4.19;100.00
43745;BME280;29359;53.048;8.732;2023-02-19T06:39:04;101993.41;;;4.18;100.00
43745;BME280;29359;53.048;8.732;2023-02-19T06:41:07;101999.47;;;4.16;100.00
43745;BME280;29359;53.048;8.732;2023-02-19T06:43:09;101994.19;;;4.13;100.00
43745;BME280;29359;53.048;8.732;2023-02-19T06:45:10;102013.28;;;4.08;100.00
43745;BME280;29359;53.048;8.732;2023-02-19T06:47:12;102021.94;;;4.06;100.00
43745;BME280;29359;53.048;8.732;2023-02-19T06:49:13;102025.41;;;4.05;100.00
43745;BME280;29359;53.048;8.732;2023-02-19T06:51:17;102034.06;;;4.01;100.00
43745;BME280;29359;53.048;8.732;2023-02-19T06:53:19;102040.09;;;3.98;100.00
43745;BME280;29359;53.048;8.732;2023-02-19T06:55:21;102041.84;;;3.98;100.00
43745;BME280;29359;53.048;8.732;2023-02-19T06:57:22;102039.19;;;3.96;100.00
43745;BME280;29359;53.048;8.732;2023-02-19T06:59:24;102040.94;;;3.96;100.00
43745;BME280;29359;53.048;8.732;2023-02-19T07:01:27;102041.81;;;3.96;100.00
43745;BME280;29359;53.048;8.732;2023-02-19T07:03:29;102043.53;;;3.96;100.00
43745;BME280;29359;53.048;8.732;2023-02-19T07:05:30;102047.94;;;3.98;100.00
43745;BME280;29359;53.048;8.732;2023-02-19T07:07:32;102051.47;;;4.00;100.00
43745;BME280;29359;53.048;8.732;2023-02-19T07:09:33;102057.59;;;4.02;100.00
43745;BME280;29359;53.048;8.732;2023-02-19T07:11:37;102058.44;;;4.00;100.00
43745;BME280;29359;53.048;8.732;2023-02-19T07:13:39;102073.16;;;3.96;100.00
43745;BME280;29359;53.048;8.732;2023-02-19T07:15:40;102080.94;;;3.93;100.00
43745;BME280;29359;53.048;8.732;2023-02-19T07:17:42;102068.66;;;3.89;100.00
43745;BME280;29359;53.048;8.732;2023-02-19T07:19:43;102077.34;;;3.88;100.00
43745;BME280;29359;53.048;8.732;2023-02-19T07:21:45;102089.53;;;3.89;100.00
43745;BME280;29359;53.048;8.732;2023-02-19T07:23:46;102095.66;;;3.90;100.00
43745;BME280;29359;53.048;8.732;2023-02-19T07:25:48;102099.22;;;3.92;100.00
43745;BME280;29359;53.048;8.732;2023-02-19T07:27:49;102109.66;;;3.92;100.00
43745;BME280;29359;53.048;8.732;2023-02-19T07:29:51;102114.88;;;3.92;100.00
43745;BME280;29359;53.048;8.732;2023-02-19T07:31:52;102122.84;;;3.98;100.00
43745;BME280;29359;53.048;8.732;2023-02-19T07:33:54;102126.38;;;4.01;100.00
43745;BME280;29359;53.048;8.732;2023-02-19T07:35:56;102129.91;;;4.03;100.00
43745;BME280;29359;53.048;8.732;2023-02-19T07:37:57;102134.25;;;4.03;100.00
43745;BME280;29359;53.048;8.732;2023-02-19T07:39:59;102131.66;;;4.04;100.00
43745;BME280;29359;53.048;8.732;2023-02-19T07:42:00;102136.06;;;4.07;100.00
43745;BME280;29359;53.048;8.732;2023-02-19T07:44:02;102148.25;;;4.06;100.00
43745;BME280;29359;53.048;8.732;2023-02-19T07:46:05;102148.19;;;4.03;100.00
43745;BME280;29359;53.048;8.732;2023-02-19T07:48:07;102154.31;;;4.04;100.00
43745;BME280;29359;53.048;8.732;2023-02-19T07:50:08;102157.81;;;4.04;100.00
43745;BME280;29359;53.048;8.732;2023-02-19T07:52:12;102166.50;;;4.03;100.00
43745;BME280;29359;53.048;8.732;2023-02-19T07:54:13;102164.72;;;4.02;100.00
43745;BME280;29359;53.048;8.732;2023-02-19T07:56:15;102169.06;;;4.02;100.00
43745;BME280;29359;53.048;8.732;2023-02-19T07:58:17;102163.91;;;4.05;100.00
43745;BME280;29359;53.048;8.732;2023-02-19T08:00:19;102163.16;;;4.10;100.00
43745;BME280;29359;53.048;8.732;2023-02-19T08:02:20;102165.00;;;4.16;100.00
43745;BME280;29359;53.048;8.732;2023-02-19T08:04:40;102165.94;;;4.20;100.00
43745;BME280;29359;53.048;8.732;2023-02-19T08:06:42;102160.72;;;4.21;100.00
43745;BME280;29359;53.048;8.732;2023-02-19T08:08:43;102148.63;;;4.26;100.00
43745;BME280;29359;53.048;8.732;2023-02-19T08:10:45;102162.59;;;4.28;100.00
43745;BME280;29359;53.048;8.732;2023-02-19T08:13:05;102158.28;;;4.30;100.00
43745;BME280;29359;53.048;8.732;2023-02-19T08:15:25;102156.56;;;4.31;100.00
43745;BME280;29359;53.048;8.732;2023-02-19T08:17:27;102142.72;;;4.35;100.00
43745;BME280;29359;53.048;8.732;2023-02-19T08:19:30;102142.78;;;4.38;100.00
43745;BME280;29359;53.048;8.732;2023-02-19T08:21:31;102146.25;;;4.38;100.00
43745;BME280;29359;53.048;8.732;2023-02-19T08:23:35;102159.31;;;4.37;100.00
43745;BME280;29359;53.048;8.732;2023-02-19T08:25:37;102158.41;;;4.35;100.00
43745;BME280;29359;53.048;8.732;2023-02-19T08:27:39;102166.28;;;4.36;100.00
43745;BME280;29359;53.048;8.732;2023-02-19T08:29:40;102163.72;;;4.39;100.00
43745;BME280;29359;53.048;8.732;2023-02-19T08:31:42;102157.66;;;4.42;100.00
43745;BME280;29359;53.048;8.732;2023-02-19T08:33:43;102166.41;;;4.44;100.00
43745;BME280;29359;53.048;8.732;2023-02-19T08:35:45;102177.78;;;4.46;100.00
43745;BME280;29359;53.048;8.732;2023-02-19T08:37:47;102189.16;;;4.48;100.00
43745;BME280;29359;53.048;8.732;2023-02-19T08:39:48;102194.41;;;4.50;100.00
43745;BME280;29359;53.048;8.732;2023-02-19T08:41:50;102199.69;;;4.53;100.00
43745;BME280;29359;53.048;8.732;2023-02-19T08:43:51;102204.09;;;4.55;100.00
43745;BME280;29359;53.048;8.732;2023-02-19T08:45:53;102197.97;;;4.53;100.00
43745;BME280;29359;53.048;8.732;2023-02-19T08:47:55;102198.88;;;4.55;100.00
43745;BME280;29359;53.048;8.732;2023-02-19T08:49:57;102185.91;;;4.63;100.00
43745;BME280;29359;53.048;8.732;2023-02-19T08:51:58;102187.81;;;4.71;100.00
43745;BME280;29359;53.048;8.732;2023-02-19T08:54:01;102199.22;;;4.75;100.00
43745;BME280;29359;53.048;8.732;2023-02-19T08:56:05;102202.78;;;4.79;100.00
43745;BME280;29359;53.048;8.732;2023-02-19T08:58:07;102208.97;;;4.82;100.00
43745;BME280;29359;53.048;8.732;2023-02-19T09:00:11;102205.53;;;4.86;100.00
43745;BME280;29359;53.048;8.732;2023-02-19T09:02:13;102211.69;;;4.88;100.00
43745;BME280;29359;53.048;8.732;2023-02-19T09:04:14;102215.16;;;4.87;100.00
43745;BME280;29359;53.048;8.732;2023-02-19T09:06:18;102223.13;;;4.95;100.00
43745;BME280;29359;53.048;8.732;2023-02-19T09:08:20;102238.88;;;4.98;100.00
43745;BME280;29359;53.048;8.732;2023-02-19T09:10:21;102233.63;;;4.96;100.00
43745;BME280;29359;53.048;8.732;2023-02-19T09:12:24;102238.00;;;4.97;100.00
43745;BME280;29359;53.048;8.732;2023-02-19T09:14:25;102234.56;;;5.00;100.00
43745;BME280;29359;53.048;8.732;2023-02-19T09:16:27;102231.03;;;4.98;100.00
43745;BME280;29359;53.048;8.732;2023-02-19T09:18:28;102238.03;;;4.99;100.00
43745;BME280;29359;53.048;8.732;2023-02-19T09:20:30;102250.34;;;5.04;100.00
43745;BME280;29359;53.048;8.732;2023-02-19T09:22:31;102252.22;;;5.13;100.00
43745;BME280;29359;53.048;8.732;2023-02-19T09:24:33;102249.69;;;5.19;100.00
43745;BME280;29359;53.048;8.732;2023-02-19T09:26:34;102260.22;;;5.21;100.00
43745;BME280;29359;53.048;8.732;2023-02-19T09:28:38;102273.34;;;5.22;100.00
43745;BME280;29359;53.048;8.732;2023-02-19T09:30:42;102278.66;;;5.27;100.00
43745;BME280;29359;53.048;8.732;2023-02-19T09:32:43;102284.69;;;5.23;100.00
43745;BME280;29359;53.048;8.732;2023-02-19T09:34:45;102282.16;;;5.27;100.00
43745;BME280;29359;53.048;8.732;2023-02-19T09:36:50;102278.03;;;5.43;100.00
43745;BME280;29359;53.048;8.732;2023-02-19T09:38:52;102291.34;;;5.57;100.00
43745;BME280;29359;53.048;8.732;2023-02-19T09:40:55;102301.81;;;5.57;100.00
43745;BME280;29359;53.048;8.732;2023-02-19T09:42:57;102307.06;;;5.57;100.00
43745;BME280;29359;53.048;8.732;2023-02-19T09:45:03;102322.78;;;5.57;99.89
43745;BME280;29359;53.048;8.732;2023-02-19T09:47:12;102329.78;;;5.58;99.47
43745;BME280;29359;53.048;8.732;2023-02-19T09:49:18;102332.44;;;5.59;99.91
43745;BME280;29359;53.048;8.732;2023-02-19T09:51:21;102330.75;;;5.63;99.43
43745;BME280;29359;53.048;8.732;2023-02-19T09:53:28;102338.69;;;5.66;98.44
43745;BME280;29359;53.048;8.732;2023-02-19T09:55:35;102345.69;;;5.67;97.60
43745;BME280;29359;53.048;8.732;2023-02-19T09:57:39;102348.28;;;5.65;97.47
43745;BME280;29359;53.048;8.732;2023-02-19T09:59:45;102354.41;;;5.66;96.83
43745;BME280;29359;53.048;8.732;2023-02-19T10:01:54;102343.91;;;5.66;95.99
43745;BME280;29359;53.048;8.732;2023-02-19T10:03:57;102363.16;;;5.66;95.58
43745;BME280;29359;53.048;8.732;2023-02-19T10:06:07;102361.47;;;5.70;95.64
43745;BME280;29359;53.048;8.732;2023-02-19T10:08:17;102360.59;;;5.71;94.71
43745;BME280;29359;53.048;8.732;2023-02-19T10:10:29;102360.75;;;5.80;95.41
43745;BME280;29359;53.048;8.732;2023-02-19T10:12:31;102367.78;;;5.84;94.71
43745;BME280;29359;53.048;8.732;2023-02-19T10:14:39;102375.88;;;5.96;94.48
43745;BME280;29359;53.048;8.732;2023-02-19T10:16:44;102380.22;;;5.94;92.97
43745;BME280;29359;53.048;8.732;2023-02-19T10:18:46;102376.81;;;6.02;93.61
43745;BME280;29359;53.048;8.732;2023-02-19T10:20:49;102379.59;;;6.11;92.86
43745;BME280;29359;53.048;8.732;2023-02-19T10:23:01;102371.84;;;6.18;93.04
43745;BME280;29359;53.048;8.732;2023-02-19T10:25:04;102380.72;;;6.26;92.60
43745;BME280;29359;53.048;8.732;2023-02-19T10:27:11;102372.94;;;6.34;92.24
43745;BME280;29359;53.048;8.732;2023-02-19T10:29:14;102371.25;;;6.39;92.10
43745;BME280;29359;53.048;8.732;2023-02-19T10:31:21;102358.97;;;6.37;90.51
43745;BME280;29359;53.048;8.732;2023-02-19T10:33:24;102355.53;;;6.39;90.91
43745;BME280;29359;53.048;8.732;2023-02-19T10:35:26;102358.16;;;6.41;90.26
43745;BME280;29359;53.048;8.732;2023-02-19T10:37:28;102353.00;;;6.47;90.15
43745;BME280;29359;53.048;8.732;2023-02-19T10:39:49;102345.25;;;6.54;89.79
43745;BME280;29359;53.048;8.732;2023-02-19T10:41:51;102354.91;;;6.58;89.74
43745;BME280;29359;53.048;8.732;2023-02-19T10:44:17;102373.41;;;6.68;89.73
43745;BME280;29359;53.048;8.732;2023-02-19T10:46:27;102372.53;;;6.67;87.54
43745;BME280;29359;53.048;8.732;2023-02-19T10:48:34;102380.31;;;6.61;85.59
43745;BME280;29359;53.048;8.732;2023-02-19T10:50:36;102389.84;;;6.54;85.45
43745;BME280;29359;53.048;8.732;2023-02-19T10:52:39;102396.88;;;6.57;85.68
43745;BME280;29359;53.048;8.732;2023-02-19T10:54:43;102404.88;;;6.68;86.83
43745;BME280;29359;53.048;8.732;2023-02-19T10:56:46;102408.56;;;6.82;87.07
43745;BME280;29359;53.048;8.732;2023-02-19T10:58:47;102415.69;;;6.92;86.31
43745;BME280;29359;53.048;8.732;2023-02-19T11:01:15;102418.53;;;7.09;86.61
43745;BME280;29359;53.048;8.732;2023-02-19T11:03:20;102424.81;;;7.23;85.25
43745;BME280;29359;53.048;8.732;2023-02-19T11:05:22;102424.72;;;7.15;82.61
43745;BME280;29359;53.048;8.732;2023-02-19T11:07:24;102428.06;;;7.01;80.87
43745;BME280;29359;53.048;8.732;2023-02-19T11:09:30;102428.94;;;7.01;81.02
43745;BME280;29359;53.048;8.732;2023-02-19T11:11:35;102422.09;;;7.15;81.70
43745;BME280;29359;53.048;8.732;2023-02-19T11:13:41;102432.03;;;7.41;81.55